sensor_id;sensor_type;location;lat;lon;timestamp;P1;durP1;ratioP1;P2;durP2;ratioP2
4839;SDS011;2434;48.486;7.964;2024-02-28T00:00:46;25.30;;;17.20;;
4839;SDS011;2434;48.486;7.964;2024-02-28T00:03:14;31.40;;;17.30;;
4839;SDS011;2434;48.486;7.964;2024-02-28T00:05:42;26.73;;;16.20;;
4839;SDS011;2434;48.486;7.964;2024-02-28T00:08:12;26.53;;;16.20;;
4839;SDS011;2434;48.486;7.964;2024-02-28T00:10:41;24.30;;;16.80;;
4839;SDS011;2434;48.486;7.964;2024-02-28T00:13:09;23.33;;;16.50;;
4839;SDS011;2434;48.486;7.964;2024-02-28T00:15:37;27.43;;;18.20;;
4839;SDS011;2434;48.486;7.964;2024-02-28T00:18:05;25.17;;;17.60;;
4839;SDS011;2434;48.486;7.964;2024-02-28T00:20:33;24.57;;;17.17;;
4839;SDS011;2434;48.486;7.964;2024-02-28T00:23:01;27.37;;;18.87;;
4839;SDS011;2434;48.486;7.964;2024-02-28T00:25:29;26.93;;;19.07;;
4839;SDS011;2434;48.486;7.964;2024-02-28T00:27:59;30.60;;;18.20;;
4839;SDS011;2434;48.486;7.964;2024-02-28T00:30:27;26.60;;;18.97;;
4839;SDS011;2434;48.486;7.964;2024-02-28T00:32:55;24.20;;;17.13;;
4839;SDS011;2434;48.486;7.964;2024-02-28T00:35:23;27.90;;;18.23;;
4839;SDS011;2434;48.486;7.964;2024-02-28T00:37:52;26.63;;;18.83;;
4839;SDS011;2434;48.486;7.964;2024-02-28T00:40:20;27.87;;;18.73;;
4839;SDS011;2434;48.486;7.964;2024-02-28T00:42:48;26.30;;;16.97;;
4839;SDS011;2434;48.486;7.964;2024-02-28T00:45:17;29.27;;;18.10;;
4839;SDS011;2434;48.486;7.964;2024-02-28T00:47:45;28.10;;;19.60;;
4839;SDS011;2434;48.486;7.964;2024-02-28T00:50:13;28.47;;;19.40;;
4839;SDS011;2434;48.486;7.964;2024-02-28T00:52:41;26.27;;;18.43;;
4839;SDS011;2434;48.486;7.964;2024-02-28T00:55:09;30.40;;;17.87;;
4839;SDS011;2434;48.486;7.964;2024-02-28T00:57:37;29.00;;;19.07;;
4839;SDS011;2434;48.486;7.964;2024-02-28T01:00:06;25.83;;;19.10;;
4839;SDS011;2434;48.486;7.964;2024-02-28T01:02:37;30.17;;;19.37;;
4839;SDS011;2434;48.486;7.964;2024-02-28T01:05:07;26.53;;;19.07;;
4839;SDS011;2434;48.486;7.964;2024-02-28T01:07:35;29.33;;;19.57;;
4839;SDS011;2434;48.486;7.964;2024-02-28T01:10:04;28.20;;;19.50;;
4839;SDS011;2434;48.486;7.964;2024-02-28T01:12:33;25.73;;;19.00;;
4839;SDS011;2434;48.486;7.964;2024-02-28T01:15:01;28.97;;;20.07;;
4839;SDS011;2434;48.486;7.964;2024-02-28T01:17:30;27.77;;;19.57;;
4839;SDS011;2434;48.486;7.964;2024-02-28T01:19:59;29.53;;;20.17;;
4839;SDS011;2434;48.486;7.964;2024-02-28T01:22:27;27.77;;;19.20;;
4839;SDS011;2434;48.486;7.964;2024-02-28T01:24:55;27.93;;;20.60;;
4839;SDS011;2434;48.486;7.964;2024-02-28T01:27:23;29.83;;;20.63;;
4839;SDS011;2434;48.486;7.964;2024-02-28T01:29:51;40.60;;;19.90;;
4839;SDS011;2434;48.486;7.964;2024-02-28T01:32:20;27.70;;;19.50;;
4839;SDS011;2434;48.486;7.964;2024-02-28T01:34:48;24.90;;;17.97;;
4839;SDS011;2434;48.486;7.964;2024-02-28T01:37:17;34.30;;;20.33;;
4839;SDS011;2434;48.486;7.964;2024-02-28T01:39:45;28.60;;;20.97;;
4839;SDS011;2434;48.486;7.964;2024-02-28T01:42:14;29.90;;;19.67;;
4839;SDS011;2434;48.486;7.964;2024-02-28T01:44:43;29.90;;;20.67;;
4839;SDS011;2434;48.486;7.964;2024-02-28T01:47:14;31.30;;;19.63;;
4839;SDS011;2434;48.486;7.964;2024-02-28T01:49:42;30.13;;;20.23;;
4839;SDS011;2434;48.486;7.964;2024-02-28T01:52:11;27.80;;;19.53;;
4839;SDS011;2434;48.486;7.964;2024-02-28T01:54:41;31.37;;;21.13;;
4839;SDS011;2434;48.486;7.964;2024-02-28T01:57:09;33.10;;;21.67;;
4839;SDS011;2434;48.486;7.964;2024-02-28T01:59:38;39.30;;;22.73;;
4839;SDS011;2434;48.486;7.964;2024-02-28T02:02:06;32.33;;;20.43;;
4839;SDS011;2434;48.486;7.964;2024-02-28T02:04:35;31.93;;;21.20;;
4839;SDS011;2434;48.486;7.964;2024-02-28T02:07:03;32.90;;;21.53;;
4839;SDS011;2434;48.486;7.964;2024-02-28T02:12:03;36.90;;;23.50;;
4839;SDS011;2434;48.486;7.964;2024-02-28T02:14:31;31.73;;;20.47;;
4839;SDS011;2434;48.486;7.964;2024-02-28T02:16:59;31.80;;;21.30;;
4839;SDS011;2434;48.486;7.964;2024-02-28T02:19:28;33.90;;;20.30;;
4839;SDS011;2434;48.486;7.964;2024-02-28T02:21:57;36.63;;;21.90;;
4839;SDS011;2434;48.486;7.964;2024-02-28T02:24:27;38.80;;;22.27;;
4839;SDS011;2434;48.486;7.964;2024-02-28T02:26:57;31.57;;;21.17;;
4839;SDS011;2434;48.486;7.964;2024-02-28T02:29:25;31.40;;;22.50;;
4839;SDS011;2434;48.486;7.964;2024-02-28T02:31:55;30.90;;;20.57;;
4839;SDS011;2434;48.486;7.964;2024-02-28T02:34:23;28.50;;;19.73;;
4839;SDS011;2434;48.486;7.964;2024-02-28T02:36:51;31.40;;;21.73;;
4839;SDS011;2434;48.486;7.964;2024-02-28T02:39:19;32.40;;;20.73;;
4839;SDS011;2434;48.486;7.964;2024-02-28T02:41:49;33.13;;;22.13;;
4839;SDS011;2434;48.486;7.964;2024-02-28T02:44:16;32.40;;;21.77;;
4839;SDS011;2434;48.486;7.964;2024-02-28T02:46:44;32.53;;;21.60;;
4839;SDS011;2434;48.486;7.964;2024-02-28T02:49:12;39.17;;;24.70;;
4839;SDS011;2434;48.486;7.964;2024-02-28T02:51:41;36.90;;;22.23;;
4839;SDS011;2434;48.486;7.964;2024-02-28T02:54:09;32.40;;;21.83;;
4839;SDS011;2434;48.486;7.964;2024-02-28T02:56:40;39.53;;;23.93;;
4839;SDS011;2434;48.486;7.964;2024-02-28T02:59:10;35.13;;;23.40;;
4839;SDS011;2434;48.486;7.964;2024-02-28T03:01:39;32.13;;;21.67;;
4839;SDS011;2434;48.486;7.964;2024-02-28T03:04:14;36.00;;;23.53;;
4839;SDS011;2434;48.486;7.964;2024-02-28T03:06:42;35.60;;;22.17;;
4839;SDS011;2434;48.486;7.964;2024-02-28T03:09:10;36.80;;;23.90;;
4839;SDS011;2434;48.486;7.964;2024-02-28T03:11:38;34.37;;;22.50;;
4839;SDS011;2434;48.486;7.964;2024-02-28T03:14:06;38.70;;;24.43;;
4839;SDS011;2434;48.486;7.964;2024-02-28T03:16:35;33.10;;;21.00;;
4839;SDS011;2434;48.486;7.964;2024-02-28T03:19:08;35.03;;;22.43;;
4839;SDS011;2434;48.486;7.964;2024-02-28T03:21:37;34.70;;;23.07;;
4839;SDS011;2434;48.486;7.964;2024-02-28T03:24:05;33.10;;;21.17;;
4839;SDS011;2434;48.486;7.964;2024-02-28T03:26:33;34.47;;;23.17;;
4839;SDS011;2434;48.486;7.964;2024-02-28T03:29:01;34.40;;;22.23;;
4839;SDS011;2434;48.486;7.964;2024-02-28T03:31:29;34.47;;;21.80;;
4839;SDS011;2434;48.486;7.964;2024-02-28T03:33:59;33.30;;;22.57;;
4839;SDS011;2434;48.486;7.964;2024-02-28T03:36:27;37.27;;;23.87;;
4839;SDS011;2434;48.486;7.964;2024-02-28T03:38:55;32.67;;;22.43;;
4839;SDS011;2434;48.486;7.964;2024-02-28T03:41:23;36.00;;;23.70;;
4839;SDS011;2434;48.486;7.964;2024-02-28T03:43:51;33.27;;;22.43;;
4839;SDS011;2434;48.486;7.964;2024-02-28T03:46:19;33.73;;;22.00;;
4839;SDS011;2434;48.486;7.964;2024-02-28T03:48:47;32.70;;;22.63;;
4839;SDS011;2434;48.486;7.964;2024-02-28T03:51:18;35.10;;;22.23;;
4839;SDS011;2434;48.486;7.964;2024-02-28T03:53:46;38.60;;;23.30;;
4839;SDS011;2434;48.486;7.964;2024-02-28T03:56:21;34.20;;;23.50;;
4839;SDS011;2434;48.486;7.964;2024-02-28T03:58:51;41.43;;;23.80;;
4839;SDS011;2434;48.486;7.964;2024-02-28T04:01:19;38.53;;;22.30;;
4839;SDS011;2434;48.486;7.964;2024-02-28T04:03:48;35.07;;;23.23;;
4839;SDS011;2434;48.486;7.964;2024-02-28T04:06:17;37.37;;;23.90;;
4839;SDS011;2434;48.486;7.964;2024-02-28T04:08:45;38.23;;;24.17;;
4839;SDS011;2434;48.486;7.964;2024-02-28T04:11:13;33.50;;;22.80;;
4839;SDS011;2434;48.486;7.964;2024-02-28T04:13:41;40.00;;;24.80;;
4839;SDS011;2434;48.486;7.964;2024-02-28T04:16:09;34.10;;;22.53;;
4839;SDS011;2434;48.486;7.964;2024-02-28T04:18:37;39.53;;;24.30;;
4839;SDS011;2434;48.486;7.964;2024-02-28T04:21:05;40.43;;;25.00;;
4839;SDS011;2434;48.486;7.964;2024-02-28T04:23:35;35.90;;;22.93;;
4839;SDS011;2434;48.486;7.964;2024-02-28T04:26:04;36.13;;;24.57;;
4839;SDS011;2434;48.486;7.964;2024-02-28T04:28:32;40.30;;;25.80;;
4839;SDS011;2434;48.486;7.964;2024-02-28T04:31:00;38.23;;;24.80;;
4839;SDS011;2434;48.486;7.964;2024-02-28T04:33:28;32.77;;;22.00;;
4839;SDS011;2434;48.486;7.964;2024-02-28T04:35:56;38.77;;;25.70;;
4839;SDS011;2434;48.486;7.964;2024-02-28T04:38:24;36.73;;;23.93;;
4839;SDS011;2434;48.486;7.964;2024-02-28T04:40:53;35.87;;;23.40;;
4839;SDS011;2434;48.486;7.964;2024-02-28T04:43:21;39.00;;;25.00;;
4839;SDS011;2434;48.486;7.964;2024-02-28T04:45:49;37.17;;;23.97;;
4839;SDS011;2434;48.486;7.964;2024-02-28T04:48:18;36.03;;;23.60;;
4839;SDS011;2434;48.486;7.964;2024-02-28T04:50:46;33.73;;;22.43;;
4839;SDS011;2434;48.486;7.964;2024-02-28T04:53:14;35.70;;;24.53;;
4839;SDS011;2434;48.486;7.964;2024-02-28T04:55:42;36.87;;;23.07;;
4839;SDS011;2434;48.486;7.964;2024-02-28T04:58:12;32.37;;;21.50;;
4839;SDS011;2434;48.486;7.964;2024-02-28T05:00:40;37.53;;;23.77;;
4839;SDS011;2434;48.486;7.964;2024-02-28T05:03:08;36.23;;;24.40;;
4839;SDS011;2434;48.486;7.964;2024-02-28T05:05:36;32.97;;;22.23;;
4839;SDS011;2434;48.486;7.964;2024-02-28T05:08:04;37.63;;;24.03;;
4839;SDS011;2434;48.486;7.964;2024-02-28T05:10:33;40.60;;;24.17;;
4839;SDS011;2434;48.486;7.964;2024-02-28T05:13:01;40.57;;;25.13;;
4839;SDS011;2434;48.486;7.964;2024-02-28T05:15:31;41.23;;;24.73;;
4839;SDS011;2434;48.486;7.964;2024-02-28T05:17:59;37.03;;;24.20;;
4839;SDS011;2434;48.486;7.964;2024-02-28T05:20:27;35.33;;;23.40;;
4839;SDS011;2434;48.486;7.964;2024-02-28T05:22:55;40.20;;;23.27;;
4839;SDS011;2434;48.486;7.964;2024-02-28T05:25:23;38.47;;;25.47;;
4839;SDS011;2434;48.486;7.964;2024-02-28T05:27:51;33.30;;;22.87;;
4839;SDS011;2434;48.486;7.964;2024-02-28T05:30:20;41.07;;;23.77;;
4839;SDS011;2434;48.486;7.964;2024-02-28T05:32:49;36.20;;;23.70;;
4839;SDS011;2434;48.486;7.964;2024-02-28T05:35:17;32.17;;;21.23;;
4839;SDS011;2434;48.486;7.964;2024-02-28T05:37:45;36.37;;;23.37;;
4839;SDS011;2434;48.486;7.964;2024-02-28T05:40:13;38.77;;;23.40;;
4839;SDS011;2434;48.486;7.964;2024-02-28T05:42:41;35.57;;;23.77;;
4839;SDS011;2434;48.486;7.964;2024-02-28T05:45:10;38.27;;;23.60;;
4839;SDS011;2434;48.486;7.964;2024-02-28T05:47:39;40.57;;;25.53;;
4839;SDS011;2434;48.486;7.964;2024-02-28T05:50:09;38.37;;;24.33;;
4839;SDS011;2434;48.486;7.964;2024-02-28T05:52:37;39.17;;;25.20;;
4839;SDS011;2434;48.486;7.964;2024-02-28T05:55:06;38.20;;;24.70;;
4839;SDS011;2434;48.486;7.964;2024-02-28T05:57:34;41.83;;;25.57;;
4839;SDS011;2434;48.486;7.964;2024-02-28T06:00:02;35.40;;;23.40;;
4839;SDS011;2434;48.486;7.964;2024-02-28T06:02:38;38.00;;;23.47;;
4839;SDS011;2434;48.486;7.964;2024-02-28T06:05:09;39.53;;;23.57;;
4839;SDS011;2434;48.486;7.964;2024-02-28T06:07:37;37.30;;;22.47;;
4839;SDS011;2434;48.486;7.964;2024-02-28T06:10:05;38.73;;;23.73;;
4839;SDS011;2434;48.486;7.964;2024-02-28T06:12:34;34.27;;;22.10;;
4839;SDS011;2434;48.486;7.964;2024-02-28T06:15:02;38.37;;;23.30;;
4839;SDS011;2434;48.486;7.964;2024-02-28T06:17:32;41.07;;;25.90;;
4839;SDS011;2434;48.486;7.964;2024-02-28T06:20:00;42.70;;;23.87;;
4839;SDS011;2434;48.486;7.964;2024-02-28T06:22:29;39.50;;;25.40;;
4839;SDS011;2434;48.486;7.964;2024-02-28T06:24:57;39.70;;;25.00;;
4839;SDS011;2434;48.486;7.964;2024-02-28T06:27:25;39.83;;;24.43;;
4839;SDS011;2434;48.486;7.964;2024-02-28T06:29:53;44.00;;;25.80;;
4839;SDS011;2434;48.486;7.964;2024-02-28T06:32:23;38.67;;;23.77;;
4839;SDS011;2434;48.486;7.964;2024-02-28T06:34:51;37.10;;;23.10;;
4839;SDS011;2434;48.486;7.964;2024-02-28T06:37:19;41.47;;;24.77;;
4839;SDS011;2434;48.486;7.964;2024-02-28T06:39:48;44.43;;;25.50;;
4839;SDS011;2434;48.486;7.964;2024-02-28T06:42:16;41.17;;;25.07;;
4839;SDS011;2434;48.486;7.964;2024-02-28T06:44:44;35.40;;;22.97;;
4839;SDS011;2434;48.486;7.964;2024-02-28T06:47:12;39.67;;;23.87;;
4839;SDS011;2434;48.486;7.964;2024-02-28T06:49:40;39.93;;;23.97;;
4839;SDS011;2434;48.486;7.964;2024-02-28T06:52:08;39.97;;;24.53;;
4839;SDS011;2434;48.486;7.964;2024-02-28T06:54:37;39.63;;;24.63;;
4839;SDS011;2434;48.486;7.964;2024-02-28T06:57:06;37.57;;;24.03;;
4839;SDS011;2434;48.486;7.964;2024-02-28T06:59:34;44.03;;;25.93;;
4839;SDS011;2434;48.486;7.964;2024-02-28T07:02:02;43.20;;;26.00;;
4839;SDS011;2434;48.486;7.964;2024-02-28T07:04:31;37.90;;;22.90;;
4839;SDS011;2434;48.486;7.964;2024-02-28T07:06:59;44.00;;;26.57;;
4839;SDS011;2434;48.486;7.964;2024-02-28T07:09:27;40.23;;;25.90;;
4839;SDS011;2434;48.486;7.964;2024-02-28T07:11:58;43.33;;;26.93;;
4839;SDS011;2434;48.486;7.964;2024-02-28T07:14:28;46.50;;;27.00;;
4839;SDS011;2434;48.486;7.964;2024-02-28T07:16:56;40.53;;;25.60;;
4839;SDS011;2434;48.486;7.964;2024-02-28T07:19:24;42.77;;;27.13;;
4839;SDS011;2434;48.486;7.964;2024-02-28T07:21:52;45.53;;;29.03;;
4839;SDS011;2434;48.486;7.964;2024-02-28T07:24:21;42.87;;;25.53;;
4839;SDS011;2434;48.486;7.964;2024-02-28T07:26:49;45.60;;;27.40;;
4839;SDS011;2434;48.486;7.964;2024-02-28T07:29:17;47.10;;;26.37;;
4839;SDS011;2434;48.486;7.964;2024-02-28T07:31:46;45.80;;;26.97;;
4839;SDS011;2434;48.486;7.964;2024-02-28T07:34:15;48.30;;;27.27;;
4839;SDS011;2434;48.486;7.964;2024-02-28T07:36:43;38.17;;;24.03;;
4839;SDS011;2434;48.486;7.964;2024-02-28T07:39:11;42.63;;;25.50;;
4839;SDS011;2434;48.486;7.964;2024-02-28T07:41:39;53.93;;;26.37;;
4839;SDS011;2434;48.486;7.964;2024-02-28T07:44:08;47.60;;;27.87;;
4839;SDS011;2434;48.486;7.964;2024-02-28T07:46:37;49.60;;;27.90;;
4839;SDS011;2434;48.486;7.964;2024-02-28T07:49:09;46.90;;;26.57;;
4839;SDS011;2434;48.486;7.964;2024-02-28T07:51:37;48.63;;;28.57;;
4839;SDS011;2434;48.486;7.964;2024-02-28T07:54:06;48.53;;;28.90;;
4839;SDS011;2434;48.486;7.964;2024-02-28T07:56:34;44.67;;;26.80;;
4839;SDS011;2434;48.486;7.964;2024-02-28T07:59:02;54.10;;;30.53;;
4839;SDS011;2434;48.486;7.964;2024-02-28T08:01:30;46.63;;;29.30;;
4839;SDS011;2434;48.486;7.964;2024-02-28T08:03:59;55.30;;;31.23;;
4839;SDS011;2434;48.486;7.964;2024-02-28T08:06:30;54.77;;;30.80;;
4839;SDS011;2434;48.486;7.964;2024-02-28T08:08:59;53.63;;;30.87;;
4839;SDS011;2434;48.486;7.964;2024-02-28T08:11:30;48.13;;;29.10;;
4839;SDS011;2434;48.486;7.964;2024-02-28T08:13:58;53.33;;;30.07;;
4839;SDS011;2434;48.486;7.964;2024-02-28T08:16:26;48.50;;;30.10;;
4839;SDS011;2434;48.486;7.964;2024-02-28T08:18:57;58.40;;;33.50;;
4839;SDS011;2434;48.486;7.964;2024-02-28T08:21:26;52.73;;;32.50;;
4839;SDS011;2434;48.486;7.964;2024-02-28T08:23:55;55.73;;;32.70;;
4839;SDS011;2434;48.486;7.964;2024-02-28T08:26:24;52.47;;;30.50;;
4839;SDS011;2434;48.486;7.964;2024-02-28T08:28:52;51.37;;;31.47;;
4839;SDS011;2434;48.486;7.964;2024-02-28T08:31:20;53.60;;;30.10;;
4839;SDS011;2434;48.486;7.964;2024-02-28T08:33:48;50.80;;;31.53;;
4839;SDS011;2434;48.486;7.964;2024-02-28T08:36:16;55.73;;;33.33;;
4839;SDS011;2434;48.486;7.964;2024-02-28T08:38:44;54.70;;;31.30;;
4839;SDS011;2434;48.486;7.964;2024-02-28T08:41:13;53.83;;;31.47;;
4839;SDS011;2434;48.486;7.964;2024-02-28T08:43:43;59.20;;;34.40;;
4839;SDS011;2434;48.486;7.964;2024-02-28T08:46:13;54.13;;;31.53;;
4839;SDS011;2434;48.486;7.964;2024-02-28T08:48:42;60.60;;;33.63;;
4839;SDS011;2434;48.486;7.964;2024-02-28T08:51:10;49.33;;;32.50;;
4839;SDS011;2434;48.486;7.964;2024-02-28T08:53:38;56.03;;;33.43;;
4839;SDS011;2434;48.486;7.964;2024-02-28T08:56:06;53.57;;;32.90;;
4839;SDS011;2434;48.486;7.964;2024-02-28T08:58:36;57.13;;;33.90;;
4839;SDS011;2434;48.486;7.964;2024-02-28T09:01:05;51.17;;;33.07;;
4839;SDS011;2434;48.486;7.964;2024-02-28T09:03:33;54.63;;;31.20;;
4839;SDS011;2434;48.486;7.964;2024-02-28T09:06:01;57.87;;;33.50;;
4839;SDS011;2434;48.486;7.964;2024-02-28T09:08:29;59.20;;;33.53;;
4839;SDS011;2434;48.486;7.964;2024-02-28T09:10:57;58.77;;;35.90;;
4839;SDS011;2434;48.486;7.964;2024-02-28T09:13:26;57.00;;;34.10;;
4839;SDS011;2434;48.486;7.964;2024-02-28T09:15:57;61.57;;;34.80;;
4839;SDS011;2434;48.486;7.964;2024-02-28T09:18:26;62.23;;;34.60;;
4839;SDS011;2434;48.486;7.964;2024-02-28T09:20:54;56.40;;;35.17;;
4839;SDS011;2434;48.486;7.964;2024-02-28T09:23:22;58.97;;;35.60;;
4839;SDS011;2434;48.486;7.964;2024-02-28T09:25:50;53.20;;;32.40;;
4839;SDS011;2434;48.486;7.964;2024-02-28T09:28:18;63.37;;;34.70;;
4839;SDS011;2434;48.486;7.964;2024-02-28T09:30:46;59.03;;;36.20;;
4839;SDS011;2434;48.486;7.964;2024-02-28T09:33:20;55.17;;;33.43;;
4839;SDS011;2434;48.486;7.964;2024-02-28T09:35:48;62.43;;;35.10;;
4839;SDS011;2434;48.486;7.964;2024-02-28T09:38:16;58.83;;;36.50;;
4839;SDS011;2434;48.486;7.964;2024-02-28T09:40:46;57.97;;;35.40;;
4839;SDS011;2434;48.486;7.964;2024-02-28T09:43:15;63.77;;;34.90;;
4839;SDS011;2434;48.486;7.964;2024-02-28T09:45:47;60.63;;;35.73;;
4839;SDS011;2434;48.486;7.964;2024-02-28T09:48:15;56.57;;;34.20;;
4839;SDS011;2434;48.486;7.964;2024-02-28T09:50:46;60.10;;;34.53;;
4839;SDS011;2434;48.486;7.964;2024-02-28T09:53:14;65.00;;;38.23;;
4839;SDS011;2434;48.486;7.964;2024-02-28T09:55:42;55.87;;;35.67;;
4839;SDS011;2434;48.486;7.964;2024-02-28T09:58:10;59.80;;;36.70;;
4839;SDS011;2434;48.486;7.964;2024-02-28T10:00:39;57.13;;;34.00;;
4839;SDS011;2434;48.486;7.964;2024-02-28T10:03:11;54.23;;;32.80;;
4839;SDS011;2434;48.486;7.964;2024-02-28T10:05:40;54.20;;;33.60;;
4839;SDS011;2434;48.486;7.964;2024-02-28T10:08:10;53.37;;;31.97;;
4839;SDS011;2434;48.486;7.964;2024-02-28T10:10:44;53.33;;;32.13;;
4839;SDS011;2434;48.486;7.964;2024-02-28T10:13:13;51.00;;;30.47;;
4839;SDS011;2434;48.486;7.964;2024-02-28T10:15:41;61.07;;;33.73;;
4839;SDS011;2434;48.486;7.964;2024-02-28T10:18:09;51.97;;;31.80;;
4839;SDS011;2434;48.486;7.964;2024-02-28T10:20:37;55.23;;;32.20;;
4839;SDS011;2434;48.486;7.964;2024-02-28T10:23:06;55.47;;;32.30;;
4839;SDS011;2434;48.486;7.964;2024-02-28T10:25:43;48.40;;;31.07;;
4839;SDS011;2434;48.486;7.964;2024-02-28T10:28:23;53.60;;;31.10;;
4839;SDS011;2434;48.486;7.964;2024-02-28T10:30:51;54.20;;;31.10;;
4839;SDS011;2434;48.486;7.964;2024-02-28T10:33:19;51.13;;;29.70;;
4839;SDS011;2434;48.486;7.964;2024-02-28T10:35:49;47.37;;;28.30;;
4839;SDS011;2434;48.486;7.964;2024-02-28T10:38:19;50.53;;;29.97;;
4839;SDS011;2434;48.486;7.964;2024-02-28T10:40:49;56.53;;;30.20;;
4839;SDS011;2434;48.486;7.964;2024-02-28T10:43:18;43.30;;;27.10;;
4839;SDS011;2434;48.486;7.964;2024-02-28T10:45:47;45.90;;;28.10;;
4839;SDS011;2434;48.486;7.964;2024-02-28T10:48:37;49.73;;;28.60;;
4839;SDS011;2434;48.486;7.964;2024-02-28T10:51:05;48.90;;;28.70;;
4839;SDS011;2434;48.486;7.964;2024-02-28T10:53:36;42.77;;;26.50;;
4839;SDS011;2434;48.486;7.964;2024-02-28T10:56:07;45.83;;;28.60;;
4839;SDS011;2434;48.486;7.964;2024-02-28T10:58:40;48.17;;;28.73;;
4839;SDS011;2434;48.486;7.964;2024-02-28T11:01:19;46.33;;;26.77;;
4839;SDS011;2434;48.486;7.964;2024-02-28T11:03:48;47.37;;;26.97;;
4839;SDS011;2434;48.486;7.964;2024-02-28T11:06:18;50.00;;;28.80;;
4839;SDS011;2434;48.486;7.964;2024-02-28T11:08:48;47.23;;;29.27;;
4839;SDS011;2434;48.486;7.964;2024-02-28T11:11:21;50.37;;;28.17;;
4839;SDS011;2434;48.486;7.964;2024-02-28T11:13:53;48.70;;;28.60;;
4839;SDS011;2434;48.486;7.964;2024-02-28T11:16:28;41.70;;;27.47;;
4839;SDS011;2434;48.486;7.964;2024-02-28T11:18:57;45.10;;;26.83;;
4839;SDS011;2434;48.486;7.964;2024-02-28T11:21:25;42.83;;;24.97;;
4839;SDS011;2434;48.486;7.964;2024-02-28T11:23:57;43.33;;;26.30;;
4839;SDS011;2434;48.486;7.964;2024-02-28T11:26:27;42.90;;;26.30;;
4839;SDS011;2434;48.486;7.964;2024-02-28T11:28:55;44.83;;;27.70;;
4839;SDS011;2434;48.486;7.964;2024-02-28T11:31:24;43.00;;;25.57;;
4839;SDS011;2434;48.486;7.964;2024-02-28T11:33:52;42.47;;;26.80;;
4839;SDS011;2434;48.486;7.964;2024-02-28T11:36:21;46.27;;;27.13;;
4839;SDS011;2434;48.486;7.964;2024-02-28T11:38:50;42.57;;;27.10;;
4839;SDS011;2434;48.486;7.964;2024-02-28T11:41:24;43.90;;;26.20;;
4839;SDS011;2434;48.486;7.964;2024-02-28T11:43:55;42.77;;;25.97;;
4839;SDS011;2434;48.486;7.964;2024-02-28T11:46:23;44.67;;;27.17;;
4839;SDS011;2434;48.486;7.964;2024-02-28T11:48:52;41.97;;;25.40;;
4839;SDS011;2434;48.486;7.964;2024-02-28T11:51:22;42.53;;;26.80;;
4839;SDS011;2434;48.486;7.964;2024-02-28T11:53:50;41.50;;;25.87;;
4839;SDS011;2434;48.486;7.964;2024-02-28T11:56:19;41.20;;;24.33;;
4839;SDS011;2434;48.486;7.964;2024-02-28T11:58:51;44.03;;;24.47;;
4839;SDS011;2434;48.486;7.964;2024-02-28T12:01:20;39.97;;;24.63;;
4839;SDS011;2434;48.486;7.964;2024-02-28T12:04:03;39.87;;;26.33;;
4839;SDS011;2434;48.486;7.964;2024-02-28T12:06:33;39.10;;;26.40;;
4839;SDS011;2434;48.486;7.964;2024-02-28T12:09:03;39.57;;;25.70;;
4839;SDS011;2434;48.486;7.964;2024-02-28T12:11:31;42.10;;;26.20;;
4839;SDS011;2434;48.486;7.964;2024-02-28T12:13:59;42.13;;;28.13;;
4839;SDS011;2434;48.486;7.964;2024-02-28T12:16:32;39.00;;;25.57;;
4839;SDS011;2434;48.486;7.964;2024-02-28T12:19:02;31.43;;;21.90;;
4839;SDS011;2434;48.486;7.964;2024-02-28T12:21:31;37.80;;;24.17;;
4839;SDS011;2434;48.486;7.964;2024-02-28T12:23:59;40.47;;;23.40;;
4839;SDS011;2434;48.486;7.964;2024-02-28T12:26:27;37.53;;;23.70;;
4839;SDS011;2434;48.486;7.964;2024-02-28T12:28:55;36.80;;;23.50;;
4839;SDS011;2434;48.486;7.964;2024-02-28T12:31:23;36.63;;;22.20;;
4839;SDS011;2434;48.486;7.964;2024-02-28T12:33:53;34.80;;;22.90;;
4839;SDS011;2434;48.486;7.964;2024-02-28T12:36:21;34.97;;;22.40;;
4839;SDS011;2434;48.486;7.964;2024-02-28T12:38:49;36.97;;;22.97;;
4839;SDS011;2434;48.486;7.964;2024-02-28T12:41:17;35.13;;;23.53;;
4839;SDS011;2434;48.486;7.964;2024-02-28T12:43:45;34.03;;;23.30;;
4839;SDS011;2434;48.486;7.964;2024-02-28T12:46:13;33.93;;;23.03;;
4839;SDS011;2434;48.486;7.964;2024-02-28T12:48:41;34.37;;;22.07;;
4839;SDS011;2434;48.486;7.964;2024-02-28T12:51:13;30.57;;;19.93;;
4839;SDS011;2434;48.486;7.964;2024-02-28T12:54:02;29.43;;;18.93;;
4839;SDS011;2434;48.486;7.964;2024-02-28T12:56:31;31.83;;;21.00;;
4839;SDS011;2434;48.486;7.964;2024-02-28T12:58:59;32.53;;;19.40;;
4839;SDS011;2434;48.486;7.964;2024-02-28T13:01:27;29.50;;;18.67;;
4839;SDS011;2434;48.486;7.964;2024-02-28T13:03:56;31.70;;;20.13;;
4839;SDS011;2434;48.486;7.964;2024-02-28T13:06:25;29.10;;;18.30;;
4839;SDS011;2434;48.486;7.964;2024-02-28T13:08:53;29.70;;;19.97;;
4839;SDS011;2434;48.486;7.964;2024-02-28T13:11:22;27.23;;;17.80;;
4839;SDS011;2434;48.486;7.964;2024-02-28T13:13:51;25.57;;;17.17;;
4839;SDS011;2434;48.486;7.964;2024-02-28T13:16:20;25.97;;;18.13;;
4839;SDS011;2434;48.486;7.964;2024-02-28T13:18:49;28.17;;;17.30;;
4839;SDS011;2434;48.486;7.964;2024-02-28T13:21:17;26.23;;;17.80;;
4839;SDS011;2434;48.486;7.964;2024-02-28T13:23:46;24.27;;;16.87;;
4839;SDS011;2434;48.486;7.964;2024-02-28T13:26:14;24.50;;;17.30;;
4839;SDS011;2434;48.486;7.964;2024-02-28T13:28:45;24.63;;;16.37;;
4839;SDS011;2434;48.486;7.964;2024-02-28T13:31:17;27.10;;;17.73;;
4839;SDS011;2434;48.486;7.964;2024-02-28T13:33:45;28.67;;;17.23;;
4839;SDS011;2434;48.486;7.964;2024-02-28T13:36:15;27.03;;;17.77;;
4839;SDS011;2434;48.486;7.964;2024-02-28T13:38:43;36.50;;;18.70;;
4839;SDS011;2434;48.486;7.964;2024-02-28T13:41:12;25.17;;;18.03;;
4839;SDS011;2434;48.486;7.964;2024-02-28T13:43:42;23.43;;;15.80;;
4839;SDS011;2434;48.486;7.964;2024-02-28T13:46:10;25.60;;;14.60;;
4839;SDS011;2434;48.486;7.964;2024-02-28T13:48:41;23.90;;;16.80;;
4839;SDS011;2434;48.486;7.964;2024-02-28T13:51:09;24.60;;;16.57;;
4839;SDS011;2434;48.486;7.964;2024-02-28T13:53:38;26.30;;;17.20;;
4839;SDS011;2434;48.486;7.964;2024-02-28T13:56:06;28.53;;;17.90;;
4839;SDS011;2434;48.486;7.964;2024-02-28T13:58:35;27.03;;;16.47;;
4839;SDS011;2434;48.486;7.964;2024-02-28T14:01:14;26.67;;;16.87;;
4839;SDS011;2434;48.486;7.964;2024-02-28T14:03:42;24.37;;;16.27;;
4839;SDS011;2434;48.486;7.964;2024-02-28T14:06:10;26.10;;;17.97;;
4839;SDS011;2434;48.486;7.964;2024-02-28T14:08:40;29.30;;;17.00;;
4839;SDS011;2434;48.486;7.964;2024-02-28T14:11:09;23.30;;;15.23;;
4839;SDS011;2434;48.486;7.964;2024-02-28T14:13:39;24.37;;;16.30;;
4839;SDS011;2434;48.486;7.964;2024-02-28T14:16:07;23.70;;;15.20;;
4839;SDS011;2434;48.486;7.964;2024-02-28T14:18:35;24.10;;;15.70;;
4839;SDS011;2434;48.486;7.964;2024-02-28T14:21:04;23.60;;;15.80;;
4839;SDS011;2434;48.486;7.964;2024-02-28T14:23:33;20.20;;;14.30;;
4839;SDS011;2434;48.486;7.964;2024-02-28T14:26:02;26.60;;;15.17;;
4839;SDS011;2434;48.486;7.964;2024-02-28T14:28:30;25.30;;;15.53;;
4839;SDS011;2434;48.486;7.964;2024-02-28T14:31:00;26.37;;;16.23;;
4839;SDS011;2434;48.486;7.964;2024-02-28T14:33:28;21.93;;;14.37;;
4839;SDS011;2434;48.486;7.964;2024-02-28T14:35:57;22.70;;;14.27;;
4839;SDS011;2434;48.486;7.964;2024-02-28T14:38:25;29.53;;;19.20;;
4839;SDS011;2434;48.486;7.964;2024-02-28T14:40:53;20.97;;;14.77;;
4839;SDS011;2434;48.486;7.964;2024-02-28T14:43:21;19.57;;;12.70;;
4839;SDS011;2434;48.486;7.964;2024-02-28T14:45:50;18.50;;;12.10;;
4839;SDS011;2434;48.486;7.964;2024-02-28T14:48:19;19.00;;;13.33;;
4839;SDS011;2434;48.486;7.964;2024-02-28T14:50:48;20.80;;;13.30;;
4839;SDS011;2434;48.486;7.964;2024-02-28T14:53:16;19.30;;;13.27;;
4839;SDS011;2434;48.486;7.964;2024-02-28T14:55:47;19.17;;;13.27;;
4839;SDS011;2434;48.486;7.964;2024-02-28T14:58:15;25.50;;;13.80;;
4839;SDS011;2434;48.486;7.964;2024-02-28T15:00:44;18.20;;;13.10;;